Time;durP1;ratioP1;P1;durP2;ratioP2;P2;SDS_P1;SDS_P2;PMS_P1;PMS_P2;Temp;Humidity;BMP_temperature;BMP_pressure;BME280_temperature;BME280_humidity;BME280_pressure;Samples;Min_cycle;Max_cycle;Signal;HPM_P1;HPM_P2
2021/05/18 00:00:11;;;;;;;1.90;1.80;;;11.60;97.30;;;;;;4956066;29;20418;-87
2021/05/18 00:02:37;;;;;;;2.67;2.13;;;11.60;97.30;;;;;;4938260;29;20431;-88
2021/05/18 00:05:06;;;;;;;3.57;1.93;;;11.60;97.30;;;;;;4938430;29;20451;-87
2021/05/18 00:07:32;;;;;;;2.63;2.00;;;11.60;97.30;;;;;;4954952;29;20450;-88
2021/05/18 00:12:42;;;;;;;2.13;1.80;;;11.60;97.30;;;;;;4955285;29;20766;-87
2021/05/18 00:15:14;;;;;;;2.40;1.90;;;11.60;97.30;;;;;;4938209;29;20462;-87
2021/05/18 00:17:40;;;;;;;3.93;2.30;;;11.60;97.30;;;;;;4938028;29;20418;-88
2021/05/18 00:20:09;;;;;;;2.80;2.17;;;11.70;97.30;;;;;;4937820;29;20932;-86
2021/05/18 00:22:34;;;;;;;4.93;2.00;;;11.70;97.30;;;;;;4937465;29;20422;-88
2021/05/18 00:25:00;;;;;;;3.27;2.50;;;11.70;97.30;;;;;;4937239;29;20486;-87
2021/05/18 00:27:29;;;;;;;5.10;2.73;;;11.70;97.30;;;;;;4954224;29;20199;-88
2021/05/18 00:29:55;;;;;;;3.83;2.20;;;11.70;97.30;;;;;;4937034;29;20182;-87
2021/05/18 00:32:21;;;;;;;2.93;2.30;;;11.70;97.30;;;;;;4937013;29;20426;-88
2021/05/18 00:34:48;;;;;;;3.47;2.77;;;11.70;97.30;;;;;;4936842;29;20443;-87
2021/05/18 00:37:14;;;;;;;6.43;2.70;;;11.70;97.30;;;;;;4954596;29;20171;-86
2021/05/18 00:39:39;;;;;;;6.70;3.03;;;11.70;97.30;;;;;;4937442;29;21001;-88
2021/05/18 00:42:16;;;;;;;5.83;3.00;;;11.70;97.30;;;;;;4937701;29;20191;-87
2021/05/18 00:44:42;;;;;;;4.70;3.27;;;11.60;97.30;;;;;;4937500;29;20203;-87
2021/05/18 00:47:08;;;;;;;4.73;3.70;;;11.60;97.30;;;;;;4937675;29;20577;-87
2021/05/18 00:49:34;;;;;;;4.73;3.67;;;11.60;97.30;;;;;;4937737;29;20235;-87
2021/05/18 00:51:59;;;;;;;8.67;4.30;;;11.60;97.30;;;;;;4937411;29;20423;-88
2021/05/18 00:54:28;;;;;;;5.50;4.00;;;11.60;97.30;;;;;;4937696;29;20411;-86
2021/05/18 00:59:37;;;;;;;13.57;4.30;;;11.60;97.30;;;;;;4958644;29;20409;-88
2021/05/18 01:02:03;;;;;;;6.93;5.37;;;11.60;97.30;;;;;;4941251;29;20921;-88
2021/05/18 01:04:28;;;;;;;6.23;4.37;;;11.60;97.30;;;;;;4941698;29;20183;-86
2021/05/18 01:06:54;;;;;;;10.27;5.30;;;11.60;97.30;;;;;;4941950;29;20203;-87
2021/05/18 01:09:19;;;;;;;7.27;4.90;;;11.60;97.30;;;;;;4941662;29;20824;-87
2021/05/18 01:11:48;;;;;;;8.00;4.93;;;11.60;97.30;;;;;;4941828;29;20214;-88
2021/05/18 01:14:17;;;;;;;8.90;5.93;;;11.60;97.30;;;;;;4958926;29;20175;-87
2021/05/18 01:16:49;;;;;;;8.73;5.63;;;11.60;97.30;;;;;;4942222;29;20435;-88
2021/05/18 01:19:18;;;;;;;8.27;4.67;;;11.60;97.30;;;;;;4958987;29;20953;-87
2021/05/18 01:21:43;;;;;;;8.93;5.20;;;11.60;97.30;;;;;;4941731;29;20439;-87
2021/05/18 01:24:10;;;;;;;7.17;5.03;;;11.60;97.30;;;;;;4941395;29;20785;-87
2021/05/18 01:26:36;;;;;;;10.60;4.80;;;11.60;97.30;;;;;;4940968;29;20297;-88
2021/05/18 01:29:04;;;;;;;6.93;5.03;;;11.60;97.30;;;;;;4940554;29;20425;-87
2021/05/18 01:31:31;;;;;;;7.77;6.03;;;11.70;97.30;;;;;;4940578;29;20926;-88
2021/05/18 01:34:00;;;;;;;10.20;5.50;;;11.60;97.30;;;;;;4940218;29;20469;-88
2021/05/18 01:36:26;;;;;;;8.60;5.47;;;11.60;97.30;;;;;;4956276;29;20438;-88
2021/05/18 01:38:59;;;;;;;9.97;6.03;;;11.60;97.30;;;;;;4940761;29;20786;-87
2021/05/18 01:44:11;;;;;;;13.13;5.80;;;11.60;97.30;;;;;;4957864;29;20447;-88
2021/05/18 01:46:37;;;;;;;9.00;5.80;;;11.50;97.30;;;;;;4937084;29;20534;-87
2021/05/18 01:49:06;;;;;;;9.87;7.00;;;11.50;97.30;;;;;;4938493;29;20982;-88
2021/05/18 01:51:39;;;;;;;11.67;6.00;;;11.50;97.30;;;;;;4936982;29;20419;-88
2021/05/18 01:54:06;;;;;;;10.77;5.97;;;11.40;97.30;;;;;;4934094;29;20459;-87
2021/05/18 01:59:03;;;;;;;12.30;6.40;;;11.30;97.30;;;;;;4937659;29;20423;-87
2021/05/18 02:01:29;;;;;;;14.00;6.20;;;11.20;97.30;;;;;;4936743;29;20184;-87
2021/05/18 02:03:54;;;;;;;9.70;6.67;;;11.20;97.30;;;;;;4937028;29;20435;-87
2021/05/18 02:06:20;;;;;;;11.87;6.90;;;11.20;97.30;;;;;;4937792;29;20203;-87
2021/05/18 02:08:45;;;;;;;10.03;6.30;;;11.20;97.30;;;;;;4935880;29;20176;-87
2021/05/18 02:11:11;;;;;;;12.47;7.93;;;11.20;97.30;;;;;;4937088;29;20227;-86
2021/05/18 02:13:42;;;;;;;15.43;8.30;;;11.10;97.30;;;;;;4937086;29;20289;-87
2021/05/18 02:16:12;;;;;;;16.20;8.63;;;11.10;97.30;;;;;;4937896;29;20600;-87
2021/05/18 02:21:26;;;;;;;14.83;8.80;;;11.10;97.30;;;;;;4938515;29;20454;-87
2021/05/18 02:26:35;;;;;;;21.50;10.33;;;11.10;97.30;;;;;;4937641;29;20844;-86
2021/05/18 02:29:01;;;;;;;18.70;9.37;;;11.10;97.30;;;;;;4936691;29;20502;-86
2021/05/18 02:31:27;;;;;;;17.33;10.70;;;11.20;97.30;;;;;;4937116;29;20186;-86
2021/05/18 02:33:52;;;;;;;23.30;11.10;;;11.10;97.30;;;;;;4937072;29;20271;-87
2021/05/18 02:36:19;;;;;;;20.20;10.20;;;11.10;97.30;;;;;;4938514;29;20659;-87
2021/05/18 02:38:46;;;;;;;18.30;10.20;;;11.10;97.30;;;;;;4937379;29;20180;-86
2021/05/18 02:41:12;;;;;;;17.80;10.10;;;11.10;97.30;;;;;;4938813;29;20452;-86
2021/05/18 02:43:49;;;;;;;20.40;10.17;;;11.10;97.30;;;;;;4937560;29;20419;-87
2021/05/18 02:51:25;;;;;;;17.70;9.80;;;11.10;97.30;;;;;;4938739;29;20189;-86
2021/05/18 02:53:50;;;;;;;20.87;10.40;;;11.10;97.30;;;;;;4936186;29;20494;-87
2021/05/18 02:56:32;;;;;;;22.43;11.03;;;11.10;97.30;;;;;;4937526;29;20858;-86
2021/05/18 03:01:29;;;;;;;17.57;9.50;;;11.10;97.30;;;;;;4938024;29;20419;-87
2021/05/18 03:03:55;;;;;;;20.27;11.37;;;11.20;97.30;;;;;;4936626;29;20423;-87
2021/05/18 03:06:21;;;;;;;20.73;10.70;;;11.10;97.30;;;;;;4937630;29;20191;-87
2021/05/18 03:08:47;;;;;;;20.97;10.90;;;11.10;97.30;;;;;;4937636;29;20428;-86
2021/05/18 03:11:12;;;;;;;21.00;9.93;;;11.10;97.30;;;;;;4936635;29;20184;-87
2021/05/18 03:13:38;;;;;;;21.60;11.77;;;11.20;97.30;;;;;;4935901;29;20215;-87
2021/05/18 03:16:04;;;;;;;19.00;10.80;;;11.10;97.30;;;;;;4936315;29;20202;-87
2021/05/18 03:18:30;;;;;;;19.63;11.03;;;11.10;97.30;;;;;;4935783;29;20794;-86
2021/05/18 03:20:58;;;;;;;18.00;10.20;;;11.10;97.30;;;;;;4934724;29;20486;-88
2021/05/18 03:23:24;;;;;;;18.37;9.13;;;11.10;97.30;;;;;;4934999;29;20189;-87
2021/05/18 03:25:50;;;;;;;19.90;9.70;;;11.10;97.30;;;;;;4934728;29;20820;-87
2021/05/18 03:28:15;;;;;;;19.90;10.43;;;11.10;97.30;;;;;;4935896;29;20195;-87
2021/05/18 03:30:51;;;;;;;19.93;10.30;;;11.10;97.30;;;;;;4935154;29;20420;-87
2021/05/18 03:36:04;;;;;;;17.40;9.67;;;11.10;97.30;;;;;;4936682;29;21274;-86
2021/05/18 03:38:35;;;;;;;17.90;10.90;;;11.10;97.30;;;;;;4935347;29;20419;-87
2021/05/18 03:41:07;;;;;;;19.43;10.33;;;11.10;97.30;;;;;;4935036;29;20411;-87
2021/05/18 03:43:49;;;;;;;20.37;10.60;;;11.10;97.30;;;;;;4936707;29;20408;-85
2021/05/18 03:52:18;;;;;;;21.50;11.43;;;11.20;97.30;;;;;;4936803;29;20439;-87
2021/05/18 04:05:17;;;;;;;20.20;11.30;;;11.10;97.30;;;;;;4937705;29;20518;-86
2021/05/18 04:18:27;;;;;;;18.97;10.07;;;11.10;97.30;;;;;;4937225;29;20426;-85
2021/05/18 04:21:06;;;;;;;17.70;9.97;;;11.10;97.30;;;;;;4936000;29;20643;-85
2021/05/18 04:23:42;;;;;;;20.43;9.63;;;11.10;97.30;;;;;;4934977;29;20800;-85
2021/05/18 04:50:50;;;;;;;18.90;10.07;;;11.20;97.30;;;;;;4960971;29;20482;-89
2021/05/18 04:53:28;;;;;;;16.90;9.23;;;11.20;97.30;;;;;;4944114;29;20399;-89
2021/05/18 05:04:12;;;;;;;18.00;10.73;;;11.20;97.30;;;;;;4960275;28;20416;-85
2021/05/18 05:06:45;;;;;;;17.97;9.63;;;11.20;97.30;;;;;;4912385;29;20859;-88
2021/05/18 05:09:22;;;;;;;18.43;9.93;;;11.20;97.30;;;;;;4904929;29;20409;-88
2021/05/18 05:14:32;;;;;;;17.97;8.30;;;11.20;97.30;;;;;;4921893;29;20407;-89
2021/05/18 05:16:57;;;;;;;15.60;9.03;;;11.20;97.30;;;;;;4910697;29;20451;-88
2021/05/18 05:19:27;;;;;;;17.53;9.87;;;11.20;97.30;;;;;;4923501;29;20187;-88
2021/05/18 05:21:53;;;;;;;21.53;9.60;;;11.20;97.30;;;;;;4924049;29;20180;-88
2021/05/18 05:24:19;;;;;;;24.80;11.20;;;11.10;97.30;;;;;;4924403;29;20438;-88
2021/05/18 05:26:47;;;;;;;18.00;9.80;;;11.10;97.30;;;;;;4921147;29;20235;-89
2021/05/18 05:29:12;;;;;;;20.33;10.53;;;11.10;97.30;;;;;;4905174;29;20507;-90
2021/05/18 05:31:39;;;;;;;20.63;10.60;;;11.10;97.30;;;;;;4904970;29;20456;-89
2021/05/18 05:34:05;;;;;;;20.60;9.40;;;11.10;97.30;;;;;;4912378;29;20180;-89
2021/05/18 05:36:30;;;;;;;24.47;10.20;;;11.10;97.30;;;;;;4923250;29;21000;-88
2021/05/18 05:39:06;;;;;;;22.30;9.73;;;11.00;97.30;;;;;;4913596;29;20192;-89
2021/05/18 05:41:32;;;;;;;19.23;11.30;;;11.10;97.30;;;;;;4917317;29;20168;-89
2021/05/18 05:43:58;;;;;;;25.03;10.80;;;11.20;97.30;;;;;;4923516;29;20783;-88
2021/05/18 05:46:23;;;;;;;16.03;9.17;;;11.20;97.30;;;;;;4938280;29;20635;-89
2021/05/18 05:48:53;;;;;;;18.83;10.03;;;11.20;97.30;;;;;;4921342;29;20184;-88
2021/05/18 05:51:27;;;;;;;19.33;9.13;;;11.20;97.30;;;;;;4921621;29;20176;-89
2021/05/18 05:53:55;;;;;;;18.33;9.73;;;11.20;97.30;;;;;;4921696;29;20482;-88
2021/05/18 05:56:21;;;;;;;16.93;9.73;;;11.30;97.30;;;;;;4920713;29;20448;-89
2021/05/18 05:58:48;;;;;;;19.93;10.17;;;11.30;97.30;;;;;;4921384;29;20443;-90
2021/05/18 06:01:13;;;;;;;15.87;9.80;;;11.40;97.30;;;;;;4917744;29;20478;-88
2021/05/18 06:03:40;;;;;;;15.77;9.13;;;11.40;97.30;;;;;;4935005;29;20522;-89
2021/05/18 06:06:06;;;;;;;13.70;8.50;;;11.40;97.30;;;;;;4921106;29;20250;-89
2021/05/18 06:08:37;;;;;;;20.90;9.57;;;11.40;97.30;;;;;;4920992;29;20459;-89
2021/05/18 06:11:08;;;;;;;20.93;9.63;;;11.50;97.30;;;;;;4920496;29;20422;-89
2021/05/18 06:13:52;;;;;;;19.10;9.83;;;11.50;97.30;;;;;;4937663;29;20515;-88
2021/05/18 06:43:54;;;;;;;21.30;9.90;;;11.50;97.30;;;;;;4938296;29;20452;-89
2021/05/18 06:46:24;;;;;;;17.20;8.47;;;11.50;97.30;;;;;;4921407;29;20475;-89
2021/05/18 06:48:59;;;;;;;22.23;10.23;;;11.50;97.30;;;;;;4921024;29;20809;-88
2021/05/18 06:51:24;;;;;;;15.93;9.20;;;11.60;97.30;;;;;;4935387;29;20423;-88
2021/05/18 06:53:50;;;;;;;16.97;9.70;;;11.90;97.30;;;;;;4939372;29;21009;-87
2021/05/18 06:56:16;;;;;;;23.57;10.17;;;12.20;97.30;;;;;;4921669;29;20251;-89
2021/05/18 07:01:08;;;;;;;16.07;8.33;;;12.40;97.30;;;;;;4919146;29;20511;-88
2021/05/18 07:03:42;;;;;;;14.53;8.20;;;12.50;97.30;;;;;;4921113;29;20260;-89
2021/05/18 07:11:02;;;;;;;13.70;8.00;;;12.50;97.30;;;;;;4927788;29;20852;-88
2021/05/18 07:13:28;;;;;;;17.67;8.13;;;12.60;97.30;;;;;;4905885;29;20207;-88
2021/05/18 07:15:54;;;;;;;13.63;8.27;;;12.70;97.30;;;;;;4902666;29;20848;-87
2021/05/18 07:18:20;;;;;;;13.23;7.53;;;12.80;97.30;;;;;;4904256;29;20428;-87
2021/05/18 07:20:45;;;;;;;9.60;6.23;;;13.00;97.30;;;;;;4934496;29;20184;-86
2021/05/18 07:23:14;;;;;;;12.10;7.43;;;13.10;97.30;;;;;;4901542;29;20857;-87
2021/05/18 07:25:40;;;;;;;11.30;6.10;;;13.10;97.30;;;;;;4901274;29;20629;-86
2021/05/18 07:28:08;;;;;;;16.10;7.40;;;13.20;97.30;;;;;;4901849;29;20488;-86
2021/05/18 07:30:40;;;;;;;26.03;6.20;;;13.30;97.30;;;;;;4900601;29;20261;-87
2021/05/18 07:33:07;;;;;;;13.00;6.50;;;13.40;97.30;;;;;;4900521;29;20440;-87
2021/05/18 07:35:33;;;;;;;7.67;5.83;;;13.50;97.30;;;;;;4900816;29;20425;-87
2021/05/18 07:37:59;;;;;;;12.17;6.90;;;13.60;97.30;;;;;;4913070;29;20495;-88
2021/05/18 07:40:25;;;;;;;10.93;5.70;;;13.70;97.30;;;;;;4936469;29;20458;-86
2021/05/18 07:42:53;;;;;;;9.90;5.37;;;13.80;97.30;;;;;;4919764;29;20180;-87
2021/05/18 07:45:27;;;;;;;13.13;5.97;;;13.80;97.30;;;;;;4907983;29;20484;-89
2021/05/18 07:47:59;;;;;;;10.43;5.80;;;13.80;97.30;;;;;;4901276;29;20482;-89
2021/05/18 07:50:40;;;;;;;8.20;5.93;;;14.00;97.30;;;;;;4902571;29;20440;-88
2021/05/18 08:06:46;;;;;;;8.83;5.83;;;13.90;97.30;;;;;;4933164;29;20490;-88
2021/05/18 08:09:11;;;;;;;11.73;5.70;;;13.80;97.30;;;;;;4914225;29;20443;-88
2021/05/18 08:11:37;;;;;;;15.00;6.00;;;13.90;97.30;;;;;;4921508;29;20198;-88
2021/05/18 08:14:03;;;;;;;17.27;6.00;;;13.90;97.30;;;;;;4916916;29;20227;-89
2021/05/18 08:19:30;;;;;;;7.97;4.87;;;14.00;97.30;;;;;;4923673;29;20172;-88
2021/05/18 08:55:31;;;;;;;9.77;5.47;;;14.50;96.10;;;;;;4878043;29;20803;-87
2021/05/18 09:41:55;;;;;;;7.47;4.87;;;15.60;91.70;;;;;;4957609;29;20482;-87
2021/05/18 10:36:35;;;;;;;13.43;6.03;;;15.80;94.90;;;;;;4956716;28;20798;-87
2021/05/18 10:39:27;;;;;;;13.33;7.97;;;15.50;95.40;;;;;;4939150;29;20195;-87
2021/05/18 10:41:54;;;;;;;12.37;6.43;;;15.30;97.00;;;;;;4938806;29;20489;-88
2021/05/18 10:44:20;;;;;;;14.20;6.10;;;15.10;97.30;;;;;;4955664;28;20421;-88
2021/05/18 10:46:57;;;;;;;20.00;8.00;;;14.90;97.30;;;;;;4936718;29;21079;-87
2021/05/18 10:49:32;;;;;;;14.40;7.00;;;14.80;97.30;;;;;;4964944;23;20584;-77
2021/05/18 10:52:00;;;;;;;12.20;6.50;;;14.70;97.30;;;;;;4939505;29;20501;-77
2021/05/18 10:54:38;;;;;;;11.23;6.60;;;14.60;97.30;;;;;;4935074;28;20414;-76
2021/05/18 10:57:05;;;;;;;20.63;6.50;;;14.60;97.30;;;;;;4960594;28;20874;-76
2021/05/18 10:59:38;;;;;;;15.80;6.13;;;14.80;97.30;;;;;;4936186;29;20510;-77
2021/05/18 11:02:11;;;;;;;19.00;6.60;;;14.80;97.30;;;;;;4957573;28;20465;-77
2021/05/18 11:04:42;;;;;;;9.00;5.40;;;14.90;97.30;;;;;;4934190;29;20438;-76
2021/05/18 11:07:10;;;;;;;11.00;5.20;;;15.10;96.60;;;;;;4938246;28;20466;-77
2021/05/18 11:23:26;;;;;;;7.90;3.93;;;17.50;87.90;;;;;;4933870;29;20938;-78
2021/05/18 11:26:07;;;;;;;7.77;3.77;;;17.90;86.00;;;;;;4935643;29;20435;-77
2021/05/18 11:28:48;;;;;;;6.70;4.17;;;17.90;84.90;;;;;;4936926;29;20461;-78
2021/05/18 11:31:17;;;;;;;11.00;4.87;;;17.70;83.70;;;;;;4937081;29;20446;-77
2021/05/18 11:33:48;;;;;;;7.17;4.13;;;17.30;84.60;;;;;;4931579;29;20429;-78
2021/05/18 11:36:40;;;;;;;7.83;4.40;;;17.40;85.20;;;;;;4934120;29;20419;-77
2021/05/18 11:39:12;;;;;;;5.97;3.93;;;17.60;84.00;;;;;;4934590;29;20438;-77
2021/05/18 11:41:40;;;;;;;8.00;4.77;;;17.70;84.10;;;;;;4952062;28;20446;-77
2021/05/18 11:44:11;;;;;;;7.40;4.70;;;17.80;84.60;;;;;;4952700;29;20513;-77
2021/05/18 11:46:51;;;;;;;8.77;4.53;;;18.00;84.20;;;;;;4935428;29;20421;-77
2021/05/18 11:49:19;;;;;;;7.70;5.27;;;18.00;84.70;;;;;;4952928;29;20831;-76
2021/05/18 11:51:52;;;;;;;8.40;5.03;;;17.40;84.70;;;;;;4935524;29;20435;-77
2021/05/18 11:54:21;;;;;;;9.83;4.50;;;17.00;86.10;;;;;;4934992;29;21041;-77
2021/05/18 11:56:48;;;;;;;7.50;4.87;;;16.80;86.00;;;;;;4932021;29;20882;-76
2021/05/18 11:59:17;;;;;;;9.83;5.13;;;17.00;86.40;;;;;;4934902;29;20426;-77
2021/05/18 12:02:00;;;;;;;6.57;4.60;;;17.10;85.80;;;;;;4926370;29;20454;-76
2021/05/18 12:04:28;;;;;;;8.97;4.83;;;17.30;86.20;;;;;;4949277;29;20490;-77
2021/05/18 12:06:55;;;;;;;9.10;4.60;;;17.70;85.90;;;;;;4934898;29;20493;-76
2021/05/18 12:09:21;;;;;;;11.23;4.63;;;18.00;85.60;;;;;;4948951;29;20938;-78
2021/05/18 12:11:58;;;;;;;9.50;4.90;;;17.90;84.40;;;;;;4934753;29;21039;-77
2021/05/18 12:14:25;;;;;;;9.30;5.37;;;17.70;85.70;;;;;;4915649;29;20438;-77
2021/05/18 12:16:51;;;;;;;9.10;4.63;;;17.50;85.80;;;;;;4922263;29;20816;-76
2021/05/18 12:19:20;;;;;;;5.73;4.20;;;17.70;86.60;;;;;;4952935;29;20429;-76
2021/05/18 12:21:48;;;;;;;4.83;3.07;;;18.20;86.00;;;;;;4934926;29;20439;-76
2021/05/18 12:24:19;;;;;;;6.20;3.70;;;18.80;82.90;;;;;;4934807;29;20726;-77
2021/05/18 12:26:59;;;;;;;8.57;4.40;;;19.00;79.10;;;;;;4934972;29;20415;-77
2021/05/18 12:29:31;;;;;;;8.20;4.40;;;19.10;80.60;;;;;;4934726;29;20421;-76
2021/05/18 12:32:19;;;;;;;9.30;3.80;;;19.20;80.80;;;;;;4934762;29;20489;-76
2021/05/18 12:34:48;;;;;;;6.33;3.90;;;19.10;80.20;;;;;;4934233;29;20422;-76
2021/05/18 12:37:15;;;;;;;6.00;4.20;;;18.80;81.00;;;;;;4933907;29;20488;-75
2021/05/18 12:39:43;;;;;;;8.40;4.07;;;18.30;81.70;;;;;;4945950;29;20423;-76
2021/05/18 12:42:13;;;;;;;8.73;4.13;;;18.00;82.10;;;;;;4934654;29;20439;-77
2021/05/18 12:44:51;;;;;;;5.50;4.13;;;17.90;83.60;;;;;;4935582;29;20490;-77
2021/05/18 12:47:34;;;;;;;8.57;4.67;;;17.70;83.30;;;;;;4934403;29;20466;-76
2021/05/18 12:50:00;;;;;;;9.47;3.70;;;17.50;83.50;;;;;;4934547;29;20481;-76
2021/05/18 12:52:41;;;;;;;6.47;4.30;;;17.40;84.50;;;;;;4951328;28;20802;-76
2021/05/18 12:55:17;;;;;;;6.70;4.53;;;17.60;84.80;;;;;;4937830;29;20179;-78
2021/05/18 12:57:54;;;;;;;11.33;4.20;;;18.00;84.50;;;;;;4938252;29;20429;-76
2021/05/18 13:00:37;;;;;;;8.13;4.37;;;18.30;84.90;;;;;;4938160;29;20432;-77
2021/05/18 13:03:19;;;;;;;8.20;4.30;;;18.50;82.30;;;;;;4938197;29;20952;-76
2021/05/18 13:05:56;;;;;;;8.70;4.63;;;19.00;82.30;;;;;;4937965;29;20414;-76
2021/05/18 13:08:23;;;;;;;9.33;4.70;;;19.40;81.50;;;;;;4938030;29;20545;-76
2021/05/18 13:12:10;;;;;;;7.73;4.47;;;19.50;81.10;;;;;;4955128;29;21145;-77
2021/05/18 13:14:00;;;;;;;8.10;4.73;;;19.20;80.40;;;;;;4955236;29;20932;-76
2021/05/18 13:16:30;;;;;;;9.27;4.83;;;19.10;81.30;;;;;;4937646;29;20434;-77
2021/05/18 13:19:02;;;;;;;11.03;4.90;;;19.50;80.40;;;;;;4937769;29;20186;-75
2021/05/18 13:21:37;;;;;;;7.67;4.60;;;19.30;80.00;;;;;;4955087;29;20501;-75
2021/05/18 13:26:34;;;;;;;6.83;4.87;;;19.80;81.30;;;;;;4955061;29;20419;-76
2021/05/18 13:29:01;;;;;;;8.60;4.60;;;19.60;80.70;;;;;;4963140;28;20600;-78
2021/05/18 13:31:31;;;;;;;7.50;4.83;;;19.30;83.30;;;;;;4947110;29;20479;-76
2021/05/18 13:33:57;;;;;;;9.67;4.93;;;18.80;82.80;;;;;;4941353;28;20422;-79
2021/05/18 13:36:23;;;;;;;8.50;4.80;;;18.40;83.80;;;;;;4938086;29;20517;-78
2021/05/18 13:38:48;;;;;;;7.97;3.93;;;18.30;85.10;;;;;;4937433;29;20182;-77
2021/05/18 13:41:14;;;;;;;9.40;4.50;;;18.10;85.50;;;;;;4937725;29;20278;-78
2021/05/18 13:43:40;;;;;;;8.93;4.50;;;18.00;85.50;;;;;;4937501;29;20191;-78
2021/05/18 13:46:06;;;;;;;7.80;4.50;;;17.90;86.30;;;;;;4937301;29;20183;-78
2021/05/18 13:48:32;;;;;;;10.07;5.17;;;18.10;86.20;;;;;;4938733;29;20486;-77
2021/05/18 13:50:59;;;;;;;7.20;4.10;;;18.50;85.80;;;;;;4938480;29;20222;-77
2021/05/18 13:53:24;;;;;;;8.00;4.33;;;18.40;83.00;;;;;;4937716;29;20426;-79
2021/05/18 13:55:50;;;;;;;7.90;4.40;;;18.30;83.60;;;;;;4937145;29;20450;-78
2021/05/18 13:58:16;;;;;;;12.33;5.33;;;18.10;84.80;;;;;;4937456;29;20215;-78
2021/05/18 14:00:42;;;;;;;9.43;4.50;;;17.70;85.60;;;;;;4937227;29;20570;-78
2021/05/18 14:03:08;;;;;;;9.10;5.60;;;17.40;87.00;;;;;;4937566;29;20422;-78
2021/05/18 14:05:33;;;;;;;9.30;5.20;;;17.30;87.10;;;;;;4953681;28;20207;-78
2021/05/18 14:08:26;;;;;;;11.57;5.67;;;17.30;89.10;;;;;;4938433;29;20219;-78
2021/05/18 14:10:59;;;;;;;6.97;4.53;;;17.80;88.70;;;;;;4938176;29;20199;-78
2021/05/18 14:13:28;;;;;;;11.40;5.70;;;18.60;87.10;;;;;;4938683;29;20422;-77
2021/05/18 14:15:55;;;;;;;9.03;4.33;;;19.00;84.80;;;;;;4955629;29;20414;-78
2021/05/18 14:18:21;;;;;;;8.67;5.00;;;19.20;86.70;;;;;;4937439;29;20415;-77
2021/05/18 14:20:47;;;;;;;6.53;4.47;;;19.50;85.00;;;;;;4937610;29;20502;-77
2021/05/18 14:23:17;;;;;;;10.33;4.47;;;19.90;85.60;;;;;;4938737;29;20414;-77
2021/05/18 14:25:42;;;;;;;6.77;4.70;;;20.40;82.20;;;;;;4936885;29;20442;-78
2021/05/18 14:28:08;;;;;;;11.50;4.60;;;20.50;80.10;;;;;;4936540;29;20805;-77
2021/05/18 14:30:34;;;;;;;6.13;4.03;;;20.70;81.50;;;;;;4928017;29;20188;-78
2021/05/18 14:33:00;;;;;;;5.83;3.70;;;20.80;80.80;;;;;;4917716;29;20279;-78
2021/05/18 14:35:28;;;;;;;6.03;3.30;;;20.80;80.90;;;;;;4917709;29;20179;-78
2021/05/18 14:38:01;;;;;;;4.20;3.20;;;20.80;78.70;;;;;;4934752;29;20432;-78
2021/05/18 14:42:55;;;;;;;12.27;3.23;;;20.70;75.70;;;;;;4944713;29;20447;-76
2021/05/18 14:45:28;;;;;;;4.70;2.87;;;21.10;78.00;;;;;;4953325;29;20543;-75
2021/05/18 14:53:42;;;;;;;6.27;3.87;;;21.40;78.50;;;;;;4950793;29;20458;-77
2021/05/18 14:56:09;;;;;;;6.87;3.37;;;21.20;79.00;;;;;;4935478;29;20806;-76
2021/05/18 14:58:34;;;;;;;5.53;2.80;;;21.40;76.90;;;;;;4936131;29;20509;-76
2021/05/18 15:01:00;;;;;;;4.20;3.07;;;21.70;75.40;;;;;;4935869;29;20534;-76
2021/05/18 15:03:30;;;;;;;4.90;3.20;;;21.60;75.50;;;;;;4936886;28;20631;-75
2021/05/18 15:05:57;;;;;;;5.57;3.57;;;21.40;74.50;;;;;;4941796;29;20277;-77
2021/05/18 15:08:23;;;;;;;5.00;3.37;;;21.10;76.70;;;;;;4935788;29;20477;-78
2021/05/18 15:10:52;;;;;;;5.60;3.60;;;20.40;78.30;;;;;;4952888;29;20538;-77
2021/05/18 15:13:18;;;;;;;6.10;3.70;;;19.80;78.90;;;;;;4935371;29;20479;-77
2021/05/18 15:15:43;;;;;;;4.10;3.57;;;20.10;79.20;;;;;;4952411;28;20454;-77
2021/05/18 15:18:10;;;;;;;8.20;3.40;;;20.40;77.50;;;;;;4951029;28;20195;-76
2021/05/18 15:20:36;;;;;;;7.53;3.70;;;20.10;78.50;;;;;;4927475;29;20214;-76
2021/05/18 15:23:01;;;;;;;8.97;3.80;;;19.60;79.70;;;;;;4930238;29;20435;-76
2021/05/18 15:25:27;;;;;;;10.10;3.80;;;19.10;80.80;;;;;;4932514;29;20222;-75
2021/05/18 15:27:53;;;;;;;8.00;4.40;;;18.80;80.70;;;;;;4935346;29;20222;-76
2021/05/18 15:30:19;;;;;;;4.40;3.30;;;18.50;82.40;;;;;;4920557;29;20457;-76
2021/05/18 15:32:44;;;;;;;3.80;3.43;;;18.30;83.60;;;;;;4916731;29;20187;-76
2021/05/18 15:35:10;;;;;;;4.00;3.20;;;18.10;84.00;;;;;;4932417;29;20427;-76
2021/05/18 15:37:36;;;;;;;5.07;2.77;;;17.90;84.40;;;;;;4936364;29;20175;-76
2021/05/18 15:40:06;;;;;;;4.70;2.80;;;17.40;86.00;;;;;;4947773;28;20642;-75
2021/05/18 15:42:31;;;;;;;2.67;2.50;;;16.90;87.70;;;;;;4949205;29;20449;-77
2021/05/18 15:44:57;;;;;;;3.70;2.80;;;16.50;88.90;;;;;;4935941;29;21292;-77
2021/05/18 15:47:22;;;;;;;4.60;2.70;;;16.20;90.00;;;;;;4936232;29;20210;-77
2021/05/18 15:49:48;;;;;;;4.63;2.87;;;15.90;91.40;;;;;;4935940;29;20317;-77
2021/05/18 15:52:14;;;;;;;3.23;2.23;;;15.60;91.70;;;;;;4938073;29;20253;-78
2021/05/18 15:54:40;;;;;;;3.53;2.40;;;15.40;92.20;;;;;;4936514;29;20434;-76
2021/05/18 15:57:06;;;;;;;4.70;2.87;;;15.20;93.90;;;;;;4953261;29;20595;-75
2021/05/18 15:59:32;;;;;;;4.73;3.00;;;15.20;95.30;;;;;;4951171;28;20183;-77
2021/05/18 16:01:58;;;;;;;3.40;2.47;;;15.00;96.70;;;;;;4932249;29;21121;-76
2021/05/18 16:04:24;;;;;;;3.30;2.70;;;14.90;97.30;;;;;;4935926;29;20171;-79
2021/05/18 16:06:50;;;;;;;5.07;3.10;;;14.80;97.30;;;;;;4952994;29;20429;-77
2021/05/18 16:09:15;;;;;;;6.67;2.80;;;14.80;97.30;;;;;;4926108;29;20190;-78
2021/05/18 16:11:42;;;;;;;3.00;2.20;;;14.90;97.30;;;;;;4935604;29;21014;-75
2021/05/18 16:14:08;;;;;;;2.83;2.13;;;15.00;97.30;;;;;;4952850;29;20176;-77
2021/05/18 16:16:35;;;;;;;2.60;1.93;;;15.00;96.80;;;;;;4952694;29;20407;-77
2021/05/18 16:19:01;;;;;;;2.47;2.00;;;15.00;95.90;;;;;;4936429;28;20534;-75
2021/05/18 16:21:27;;;;;;;2.47;1.93;;;15.10;96.50;;;;;;4935954;29;20537;-77
2021/05/18 16:23:56;;;;;;;2.17;1.97;;;15.20;96.40;;;;;;4935438;29;20179;-74
2021/05/18 16:26:24;;;;;;;3.80;2.20;;;15.60;94.80;;;;;;4938764;28;20459;-73
2021/05/18 16:28:51;;;;;;;2.30;1.80;;;15.60;93.40;;;;;;4953022;28;20458;-74
2021/05/18 16:31:17;;;;;;;5.33;3.40;;;15.50;93.60;;;;;;4953337;29;20426;-73
2021/05/18 16:33:43;;;;;;;6.13;2.00;;;15.40;94.70;;;;;;4955805;29;20422;-74
2021/05/18 16:36:10;;;;;;;3.33;2.37;;;15.20;94.90;;;;;;4955778;29;20857;-74
2021/05/18 16:38:37;;;;;;;2.50;2.30;;;15.00;95.40;;;;;;4956246;29;20930;-73
2021/05/18 16:41:04;;;;;;;3.13;2.20;;;14.90;96.30;;;;;;4935545;29;20458;-75
2021/05/18 16:43:30;;;;;;;4.40;2.40;;;14.80;97.10;;;;;;4941072;29;20437;-75
2021/05/18 16:45:56;;;;;;;3.47;2.30;;;14.80;97.30;;;;;;4940510;29;20415;-75
2021/05/18 16:48:26;;;;;;;3.20;2.17;;;14.80;97.30;;;;;;4957111;28;20470;-73
2021/05/18 16:50:52;;;;;;;5.60;2.07;;;14.70;97.30;;;;;;4954587;29;20246;-74
2021/05/18 16:53:17;;;;;;;3.53;2.50;;;14.70;97.30;;;;;;4953756;28;20858;-74
2021/05/18 16:55:43;;;;;;;3.23;1.93;;;14.60;97.30;;;;;;4954538;29;20666;-74
2021/05/18 16:58:09;;;;;;;3.10;1.83;;;14.60;96.90;;;;;;4955750;29;20234;-74
2021/05/18 17:00:35;;;;;;;3.67;2.00;;;14.50;97.30;;;;;;4938253;29;20195;-74
2021/05/18 17:03:01;;;;;;;2.17;1.90;;;14.60;97.30;;;;;;4933045;29;20428;-74
2021/05/18 17:05:27;;;;;;;3.63;2.67;;;14.60;97.30;;;;;;4938309;29;20498;-73
2021/05/18 17:07:54;;;;;;;2.10;1.97;;;14.60;97.20;;;;;;4954903;29;20474;-74
2021/05/18 17:10:22;;;;;;;2.43;1.90;;;14.50;97.30;;;;;;4950387;29;20176;-76
2021/05/18 17:12:52;;;;;;;4.33;2.20;;;14.50;97.30;;;;;;4955379;29;20555;-75
2021/05/18 17:15:18;;;;;;;2.50;2.33;;;14.40;97.30;;;;;;4938595;29;20482;-75
2021/05/18 17:17:44;;;;;;;3.77;2.40;;;14.30;97.30;;;;;;4963283;23;21198;-75
2021/05/18 17:20:12;;;;;;;1.90;1.70;;;14.20;97.30;;;;;;4952199;29;20425;-74
2021/05/18 17:22:38;;;;;;;2.90;2.30;;;14.00;97.30;;;;;;4953410;29;20202;-74
2021/05/18 17:25:05;;;;;;;4.07;1.90;;;13.90;97.30;;;;;;4953037;29;20418;-75
2021/05/18 17:27:31;;;;;;;6.70;3.07;;;13.90;97.30;;;;;;4954078;29;20549;-74
2021/05/18 17:29:56;;;;;;;4.60;2.70;;;13.90;97.30;;;;;;4953957;29;20510;-74
2021/05/18 17:32:22;;;;;;;2.80;2.37;;;14.00;97.30;;;;;;4954967;29;20289;-74
2021/05/18 17:34:47;;;;;;;3.90;2.70;;;14.00;97.30;;;;;;4953741;29;20206;-75
2021/05/18 17:37:13;;;;;;;4.10;2.87;;;14.00;97.30;;;;;;4951514;29;20269;-75
2021/05/18 17:39:38;;;;;;;8.43;3.10;;;13.90;97.30;;;;;;4953875;28;20554;-74
2021/05/18 17:42:05;;;;;;;11.00;3.13;;;13.90;97.30;;;;;;4950660;28;20662;-75